createdAt,value
2023-04-21T00:01:26.441Z,14.48
2023-04-21T00:03:53.518Z,14.95
2023-04-21T00:06:23.119Z,12.70
2023-04-21T00:08:50.599Z,15.50
2023-04-21T00:11:17.666Z,12.98
2023-04-21T00:13:45.044Z,13.25
2023-04-21T00:16:12.399Z,15.02
2023-04-21T00:18:39.369Z,14.27
2023-04-21T00:21:06.463Z,19.87
2023-04-21T00:23:33.481Z,15.18
2023-04-21T00:26:03.160Z,16.35
2023-04-21T00:28:30.302Z,12.48
2023-04-21T00:30:57.400Z,16.58
2023-04-21T00:33:24.491Z,17.83
2023-04-21T00:35:51.607Z,23.67
2023-04-21T00:38:18.489Z,23.95
2023-04-21T00:40:45.560Z,22.95
2023-04-21T00:43:12.431Z,19.55
2023-04-21T00:45:39.350Z,27.65
2023-04-21T00:48:06.570Z,37.95
2023-04-21T00:50:34.061Z,34.20
2023-04-21T00:53:01.088Z,35.38
2023-04-21T00:55:29.197Z,30.98
2023-04-21T00:57:56.820Z,34.05
2023-04-21T01:00:23.873Z,30.23
2023-04-21T01:02:51.243Z,29.10
2023-04-21T01:05:18.560Z,33.00
2023-04-21T01:07:46.060Z,33.53
2023-04-21T01:10:13.014Z,25.90
2023-04-21T01:12:45.110Z,25.45
2023-04-21T01:15:17.585Z,23.98
2023-04-21T01:17:45.584Z,22.10
2023-04-21T01:20:14.710Z,27.27
2023-04-21T01:22:44.776Z,22.27
2023-04-21T01:25:11.768Z,20.08
2023-04-21T01:27:38.722Z,21.33
2023-04-21T01:30:07.681Z,27.95
2023-04-21T01:32:34.667Z,19.80
2023-04-21T01:35:02.040Z,22.15
2023-04-21T01:37:31.581Z,32.67
2023-04-21T01:40:00.707Z,31.15
2023-04-21T01:42:29.655Z,31.87
2023-04-21T01:44:57.173Z,25.03
2023-04-21T01:47:25.694Z,26.15
2023-04-21T01:49:53.319Z,32.20
2023-04-21T01:52:20.738Z,31.80
2023-04-21T01:54:47.934Z,23.73
2023-04-21T01:57:15.593Z,22.87
2023-04-21T01:59:42.634Z,22.67
2023-04-21T02:02:10.295Z,20.08
2023-04-21T02:04:37.543Z,29.63
2023-04-21T02:07:04.531Z,25.33
2023-04-21T02:09:32.327Z,23.55
2023-04-21T02:11:59.289Z,21.90
2023-04-21T02:14:26.502Z,20.73
2023-04-21T02:16:53.614Z,20.60
2023-04-21T02:19:20.893Z,26.67
2023-04-21T02:21:48.106Z,26.20
2023-04-21T02:24:15.030Z,23.52
2023-04-21T02:26:41.929Z,22.80
2023-04-21T02:29:08.867Z,23.30
2023-04-21T02:31:46.119Z,18.12
2023-04-21T02:34:21.638Z,19.45
2023-04-21T02:36:48.820Z,30.25
2023-04-21T02:39:15.677Z,29.75
2023-04-21T02:41:42.603Z,28.50
2023-04-21T02:44:09.544Z,26.42
2023-04-21T02:46:36.470Z,26.10
2023-04-21T02:49:03.483Z,29.20
2023-04-21T02:51:30.382Z,24.15
2023-04-21T02:53:57.653Z,21.83
2023-04-21T02:56:24.579Z,22.50
2023-04-21T02:58:51.463Z,23.75
2023-04-21T03:01:18.538Z,24.10
2023-04-21T03:03:46.391Z,24.02
2023-04-21T03:06:13.310Z,22.83
2023-04-21T03:08:40.332Z,27.20
2023-04-21T03:11:07.159Z,24.58
2023-04-21T03:13:34.087Z,31.60
2023-04-21T03:16:01.166Z,27.95
2023-04-21T03:18:28.438Z,24.80
2023-04-21T03:21:00.354Z,31.33
2023-04-21T03:23:27.233Z,27.60
2023-04-21T03:25:54.217Z,20.85
2023-04-21T03:28:21.169Z,20.67
2023-04-21T03:30:48.092Z,24.58
2023-04-21T03:33:15.069Z,18.77
2023-04-21T03:35:41.981Z,28.92
2023-04-21T03:38:08.943Z,23.15
2023-04-21T03:40:35.861Z,25.42
2023-04-21T03:43:02.823Z,20.20
2023-04-21T03:45:29.713Z,20.67
2023-04-21T03:47:57.193Z,26.17
2023-04-21T03:50:24.252Z,24.98
2023-04-21T03:52:51.173Z,27.62
2023-04-21T03:55:18.151Z,24.87
2023-04-21T03:57:45.126Z,23.92
2023-04-21T04:00:13.100Z,23.73
2023-04-21T04:02:40.908Z,26.75
2023-04-21T04:05:08.725Z,23.55
2023-04-21T04:07:35.886Z,23.95
2023-04-21T04:10:02.923Z,18.70
2023-04-21T04:12:30.092Z,16.00
2023-04-21T04:14:57.028Z,24.50
2023-04-21T04:17:24.016Z,24.30
2023-04-21T04:19:50.983Z,16.90
2023-04-21T04:22:17.876Z,21.10
2023-04-21T04:24:45.363Z,17.02
2023-04-21T04:27:14.378Z,17.30
2023-04-21T04:29:41.499Z,19.27
2023-04-21T04:32:11.324Z,14.30
2023-04-21T04:37:05.391Z,22.08
2023-04-21T04:39:32.692Z,17.45
2023-04-21T04:41:59.982Z,18.95
2023-04-21T04:44:27.027Z,19.62
2023-04-21T04:46:54.492Z,24.12
2023-04-21T04:49:23.581Z,20.55
2023-04-21T04:51:51.198Z,21.92
2023-04-21T04:54:18.595Z,22.77
2023-04-21T04:56:46.280Z,28.38
2023-04-21T04:59:13.271Z,21.83
2023-04-21T05:01:42.155Z,20.17
2023-04-21T05:04:09.492Z,22.57
2023-04-21T05:06:36.620Z,18.45
2023-04-21T05:09:05.179Z,28.15
2023-04-21T05:11:32.281Z,26.70
2023-04-21T05:13:59.607Z,29.67
2023-04-21T05:16:26.705Z,25.77
2023-04-21T05:18:54.327Z,21.50
2023-04-21T05:21:28.949Z,14.02
2023-04-21T05:23:57.470Z,18.30
2023-04-21T05:26:25.997Z,19.58
2023-04-21T05:28:53.385Z,24.60
2023-04-21T05:31:20.439Z,18.67
2023-04-21T05:33:47.383Z,20.90
2023-04-21T05:36:14.391Z,29.95
2023-04-21T05:38:41.296Z,33.17
2023-04-21T05:41:08.711Z,24.42
2023-04-21T05:43:35.742Z,33.03
2023-04-21T05:46:04.199Z,31.12
2023-04-21T05:48:31.272Z,25.95
2023-04-21T05:50:58.298Z,15.45
2023-04-21T05:53:25.372Z,15.52
2023-04-21T05:55:52.422Z,18.35
2023-04-21T05:58:19.422Z,23.40
2023-04-21T06:00:48.954Z,27.92
2023-04-21T06:03:16.505Z,16.65
2023-04-21T06:05:43.676Z,25.83
2023-04-21T06:08:10.618Z,20.12
2023-04-21T06:10:37.795Z,15.70
2023-04-21T06:13:04.740Z,10.55
2023-04-21T06:15:31.732Z,17.25
2023-04-21T06:17:58.853Z,16.15
2023-04-21T06:20:29.087Z,19.40
2023-04-21T06:22:58.445Z,16.48
2023-04-21T06:25:25.481Z,21.35
2023-04-21T06:27:52.708Z,20.90
2023-04-21T06:30:19.685Z,15.20
2023-04-21T06:32:47.999Z,19.60
2023-04-21T06:35:15.533Z,17.42
2023-04-21T06:37:42.535Z,15.60
2023-04-21T06:40:10.017Z,11.32
2023-04-21T06:42:36.988Z,17.77
2023-04-21T06:45:04.260Z,13.05
2023-04-21T06:47:31.291Z,14.35
2023-04-21T06:49:58.248Z,13.25
2023-04-21T06:52:25.241Z,13.95
2023-04-21T06:54:52.338Z,16.23
2023-04-21T06:57:19.438Z,14.20
2023-04-21T06:59:46.398Z,13.20
2023-04-21T07:02:13.331Z,9.60
2023-04-21T07:04:40.419Z,11.57
2023-04-21T07:07:07.497Z,7.78
2023-04-21T07:09:34.528Z,9.02
2023-04-21T07:12:02.950Z,10.95
2023-04-21T07:14:30.207Z,13.15
2023-04-21T07:16:57.654Z,10.52
2023-04-21T07:19:24.670Z,10.88
2023-04-21T07:21:51.678Z,14.23
2023-04-21T07:24:18.715Z,12.93
2023-04-21T07:26:45.783Z,8.13
2023-04-21T07:29:18.914Z,11.40
2023-04-21T07:31:48.498Z,9.32
2023-04-21T07:34:17.624Z,7.78
2023-04-21T07:36:47.223Z,6.60
2023-04-21T07:39:14.283Z,10.82
2023-04-21T07:41:41.247Z,7.53
2023-04-21T07:44:08.259Z,7.95
2023-04-21T07:46:35.332Z,13.93
2023-04-21T07:49:17.985Z,14.02
2023-04-21T07:51:45.300Z,9.27
2023-04-21T07:54:12.975Z,7.78
2023-04-21T07:56:40.413Z,11.20
2023-04-21T07:59:07.557Z,7.82
2023-04-21T08:01:34.888Z,8.35
2023-04-21T08:04:02.066Z,13.23
2023-04-21T08:06:32.238Z,9.18
2023-04-21T08:09:00.021Z,11.10
2023-04-21T08:11:28.798Z,7.87
2023-04-21T08:13:55.804Z,11.07
2023-04-21T08:16:22.903Z,11.93
2023-04-21T08:18:50.023Z,14.10
2023-04-21T08:21:17.023Z,7.12
2023-04-21T08:23:44.049Z,9.52
2023-04-21T08:26:12.590Z,10.73
2023-04-21T08:28:39.930Z,10.30
2023-04-21T08:31:07.020Z,12.82
2023-04-21T08:33:34.114Z,12.23
2023-04-21T08:36:07.500Z,13.18
2023-04-21T08:38:39.722Z,9.88
2023-04-21T08:41:08.669Z,12.55
2023-04-21T08:43:35.650Z,10.02
2023-04-21T08:46:07.281Z,11.10
2023-04-21T08:48:38.638Z,9.57
2023-04-21T08:51:12.595Z,12.80
2023-04-21T08:53:41.919Z,12.95
2023-04-21T08:56:11.627Z,8.65
2023-04-21T08:58:39.187Z,14.80
2023-04-21T09:01:06.530Z,12.43
2023-04-21T09:03:33.769Z,15.43
2023-04-21T09:06:03.455Z,7.35
2023-04-21T09:08:31.301Z,9.00
2023-04-21T09:11:00.098Z,16.27
2023-04-21T09:13:45.274Z,15.80
2023-04-21T09:16:21.781Z,11.18
2023-04-21T09:18:50.364Z,7.03
2023-04-21T09:21:19.311Z,18.73
2023-04-21T09:23:51.114Z,10.40
2023-04-21T09:26:19.802Z,8.05
2023-04-21T09:28:49.051Z,13.00
2023-04-21T09:31:21.780Z,10.27
2023-04-21T09:34:00.440Z,10.93
2023-04-21T09:36:32.286Z,16.23
2023-04-21T09:41:33.656Z,11.88
2023-04-21T09:44:05.110Z,9.85
2023-04-21T09:46:37.164Z,14.70
2023-04-21T09:49:08.804Z,13.70
2023-04-21T09:56:55.113Z,13.25
2023-04-21T09:59:29.644Z,13.52
2023-04-21T10:02:00.298Z,14.75
2023-04-21T10:04:31.820Z,11.68
2023-04-21T10:07:00.815Z,9.00
2023-04-21T10:09:51.329Z,14.07
2023-04-21T10:12:18.661Z,9.10
2023-04-21T10:14:45.811Z,15.02
2023-04-21T10:17:13.089Z,18.15
2023-04-21T10:19:50.161Z,14.65
2023-04-21T10:22:28.060Z,8.68
2023-04-21T10:25:00.537Z,10.10
2023-04-21T10:27:41.419Z,10.23
2023-04-21T10:30:26.780Z,8.75
2023-04-21T10:33:05.069Z,11.38
2023-04-21T10:36:01.327Z,14.30
2023-04-21T10:38:57.962Z,14.00
2023-04-21T10:41:32.767Z,13.43
2023-04-21T10:44:16.607Z,12.93
2023-04-21T10:46:47.268Z,9.07
2023-04-21T10:49:30.884Z,11.55
2023-04-21T10:52:03.673Z,11.07
2023-04-21T10:54:53.969Z,12.02
2023-04-21T10:57:21.387Z,12.98
2023-04-21T10:59:49.851Z,11.65
2023-04-21T11:02:18.882Z,8.45
2023-04-21T11:04:51.085Z,13.38
2023-04-21T11:07:25.908Z,7.93
2023-04-21T11:10:01.778Z,13.25
2023-04-21T11:12:32.853Z,7.75
2023-04-21T11:15:03.293Z,12.20
2023-04-21T11:17:30.871Z,9.18
2023-04-21T11:19:57.804Z,10.88
2023-04-21T11:22:26.631Z,7.97
2023-04-21T11:24:58.091Z,12.93
2023-04-21T11:27:27.761Z,12.82
2023-04-21T11:29:54.729Z,13.95
2023-04-21T11:32:21.890Z,12.60
2023-04-21T11:34:48.903Z,11.02
2023-04-21T11:37:17.627Z,8.07
2023-04-21T11:39:45.052Z,12.53
2023-04-21T11:42:12.396Z,11.60
2023-04-21T11:44:41.613Z,9.60
2023-04-21T11:47:19.165Z,9.75
2023-04-21T11:49:51.780Z,8.80
2023-04-21T11:52:25.402Z,10.77
2023-04-21T11:55:07.578Z,11.95
2023-04-21T11:57:34.786Z,13.77
2023-04-21T12:00:03.599Z,15.00
2023-04-21T12:02:32.763Z,7.65
2023-04-21T12:05:04.870Z,11.12
2023-04-21T12:07:56.417Z,11.02
2023-04-21T12:10:23.537Z,14.32
2023-04-21T12:12:51.552Z,9.68
2023-04-21T12:15:23.460Z,12.57
2023-04-21T12:17:52.520Z,4.72
2023-04-21T12:20:21.279Z,10.48
2023-04-21T12:22:49.356Z,11.98
2023-04-21T12:25:16.541Z,8.88
2023-04-21T12:27:54.411Z,8.80
2023-04-21T12:30:21.842Z,6.70
2023-04-21T12:32:49.404Z,6.22
2023-04-21T12:35:16.486Z,10.07
2023-04-21T12:37:43.474Z,11.55
2023-04-21T12:40:10.924Z,7.55
2023-04-21T12:42:38.470Z,6.82
2023-04-21T12:45:06.978Z,9.82
2023-04-21T12:47:35.354Z,8.10
2023-04-21T12:50:02.605Z,5.75
2023-04-21T12:52:29.624Z,14.25
2023-04-21T12:54:56.537Z,10.63
2023-04-21T12:57:23.637Z,10.70
2023-04-21T12:59:50.647Z,5.37
2023-04-21T13:02:18.118Z,18.35
2023-04-21T13:04:45.343Z,13.60
2023-04-21T13:07:12.904Z,10.60
2023-04-21T13:09:40.357Z,10.90
2023-04-21T13:12:07.909Z,6.35
2023-04-21T13:14:35.182Z,7.65
2023-04-21T13:17:04.157Z,9.05
2023-04-21T13:19:32.024Z,9.40
2023-04-21T13:21:59.771Z,20.45
2023-04-21T13:24:27.232Z,6.90
2023-04-21T13:26:55.260Z,13.55
2023-04-21T13:29:22.336Z,7.35
2023-04-21T13:31:49.568Z,8.43
2023-04-21T13:34:16.984Z,11.18
2023-04-21T13:36:44.065Z,8.30
2023-04-21T13:39:11.516Z,8.40
2023-04-21T13:41:38.786Z,19.50
2023-04-21T13:44:05.970Z,15.10
2023-04-21T13:46:34.020Z,7.30
2023-04-21T13:49:01.374Z,7.00
2023-04-21T13:51:31.278Z,11.38
2023-04-21T13:53:58.820Z,8.40
2023-04-21T13:56:26.144Z,11.65
2023-04-21T13:58:53.843Z,11.85
2023-04-21T14:01:21.790Z,14.43
2023-04-21T14:03:49.431Z,7.00
2023-04-21T14:06:16.804Z,7.82
2023-04-21T14:08:43.809Z,8.68
2023-04-21T14:11:10.810Z,9.32
2023-04-21T14:13:45.464Z,8.45
2023-04-21T14:16:19.316Z,12.55
2023-04-21T14:18:47.482Z,10.15
2023-04-21T14:21:14.511Z,10.50
2023-04-21T14:23:41.516Z,7.22
2023-04-21T14:26:08.593Z,10.43
2023-04-21T14:28:35.899Z,9.10
2023-04-21T14:31:03.016Z,9.45
2023-04-21T14:33:30.315Z,11.95
2023-04-21T14:35:57.316Z,10.35
2023-04-21T14:38:24.703Z,10.20
2023-04-21T14:40:54.752Z,11.25
2023-04-21T14:43:22.068Z,11.43
2023-04-21T14:45:49.214Z,12.48
2023-04-21T14:48:16.732Z,11.02
2023-04-21T14:50:44.188Z,7.90
2023-04-21T14:53:11.494Z,15.45
2023-04-21T14:55:38.422Z,7.90
2023-04-21T14:58:05.375Z,10.07
2023-04-21T15:00:32.966Z,6.30
2023-04-21T15:03:00.171Z,11.18
2023-04-21T15:05:27.304Z,10.23
2023-04-21T15:07:54.294Z,11.10
2023-04-21T15:10:21.301Z,10.30
2023-04-21T15:12:48.409Z,9.82
2023-04-21T15:15:15.347Z,9.60
2023-04-21T15:17:42.323Z,9.80
2023-04-21T15:20:10.461Z,12.52
2023-04-21T15:22:37.834Z,11.27
2023-04-21T15:25:05.186Z,17.10
2023-04-21T15:27:32.116Z,9.50
2023-04-21T15:29:59.088Z,9.70
2023-04-21T15:32:26.566Z,6.95
2023-04-21T15:34:53.644Z,9.90
2023-04-21T15:37:24.248Z,10.50
2023-04-21T15:39:52.532Z,8.68
2023-04-21T15:42:19.580Z,11.15
2023-04-21T15:44:47.204Z,11.18
2023-04-21T15:47:16.690Z,8.48
2023-04-21T15:49:43.706Z,11.88
2023-04-21T15:52:11.344Z,13.20
2023-04-21T15:54:38.840Z,7.90
2023-04-21T15:57:06.467Z,11.23
2023-04-21T15:59:33.438Z,7.03
2023-04-21T16:02:00.551Z,7.28
2023-04-21T16:04:28.058Z,6.43
2023-04-21T16:06:55.180Z,7.30
2023-04-21T16:09:22.716Z,9.93
2023-04-21T16:11:52.572Z,11.20
2023-04-21T16:14:19.700Z,8.52
2023-04-21T16:16:46.860Z,12.50
2023-04-21T16:19:14.029Z,9.88
2023-04-21T16:21:42.267Z,7.53
2023-04-21T16:24:09.374Z,8.13
2023-04-21T16:26:36.978Z,11.45
2023-04-21T16:29:04.161Z,7.55
2023-04-21T16:31:31.862Z,9.73
2023-04-21T16:34:00.466Z,10.57
2023-04-21T16:36:28.695Z,10.45
2023-04-21T16:38:56.348Z,12.45
2023-04-21T16:41:23.819Z,12.32
2023-04-21T16:43:51.016Z,11.32
2023-04-21T16:46:18.474Z,12.90
2023-04-21T16:48:45.710Z,10.93
2023-04-21T16:51:12.833Z,8.95
2023-04-21T16:53:40.447Z,12.18
2023-04-21T16:56:07.761Z,10.88
2023-04-21T16:58:34.806Z,12.15
2023-04-21T17:01:01.889Z,8.35
2023-04-21T17:03:29.505Z,11.20
2023-04-21T17:05:56.559Z,11.50
2023-04-21T17:08:23.533Z,14.13
2023-04-21T17:10:50.681Z,13.57
2023-04-21T17:13:17.655Z,11.63
2023-04-21T17:15:44.614Z,10.57
2023-04-21T17:18:11.729Z,15.95
2023-04-21T17:20:39.065Z,15.32
2023-04-21T17:23:06.291Z,12.23
2023-04-21T17:25:33.330Z,9.75
2023-04-21T17:28:00.313Z,8.80
2023-04-21T17:30:27.278Z,6.78
2023-04-21T17:33:04.228Z,11.23
2023-04-21T17:35:46.054Z,6.10
2023-04-21T17:38:19.352Z,8.23
2023-04-21T17:40:46.268Z,10.68
2023-04-21T17:43:13.431Z,9.05
2023-04-21T17:45:40.646Z,12.05
2023-04-21T17:48:07.709Z,8.00
2023-04-21T17:50:34.668Z,10.32
2023-04-21T17:53:01.718Z,16.37
2023-04-21T17:55:28.738Z,11.27
2023-04-21T17:57:55.709Z,7.22
2023-04-21T18:00:22.629Z,11.90
2023-04-21T18:02:49.533Z,7.60
2023-04-21T18:05:17.349Z,11.35
2023-04-21T18:07:44.521Z,9.88
2023-04-21T18:10:11.617Z,11.00
2023-04-21T18:12:38.562Z,13.98
2023-04-21T18:15:05.959Z,11.23
2023-04-21T18:17:32.904Z,16.90
2023-04-21T18:19:59.822Z,19.95
2023-04-21T18:22:27.028Z,15.80
2023-04-21T18:24:54.202Z,25.17
2023-04-21T18:27:21.311Z,36.38
2023-04-21T18:29:48.250Z,26.80
2023-04-21T18:32:15.195Z,41.03
2023-04-21T18:34:42.325Z,50.25
2023-04-21T18:37:09.386Z,59.15
2023-04-21T18:39:36.537Z,54.30
2023-04-21T18:42:03.728Z,52.05
2023-04-21T18:44:30.799Z,42.03
2023-04-21T18:46:58.563Z,42.40
2023-04-21T18:49:25.545Z,49.70
2023-04-21T18:51:52.541Z,55.70
2023-04-21T18:54:19.403Z,55.63
2023-04-21T18:56:46.854Z,53.38
2023-04-21T18:59:13.925Z,48.35
2023-04-21T19:01:41.877Z,49.92
2023-04-21T19:04:11.857Z,52.33
2023-04-21T19:06:38.872Z,31.55
2023-04-21T19:09:05.819Z,30.62
2023-04-21T19:11:33.673Z,26.58
2023-04-21T19:14:00.670Z,27.75
2023-04-21T19:16:28.599Z,17.95
2023-04-21T19:18:55.641Z,19.00
2023-04-21T19:21:22.652Z,20.02
2023-04-21T19:23:49.629Z,18.12
2023-04-21T19:26:16.709Z,16.12
2023-04-21T19:28:44.133Z,15.40
2023-04-21T19:31:11.284Z,19.37
2023-04-21T19:33:38.272Z,16.45
2023-04-21T19:36:05.861Z,15.75
2023-04-21T19:38:33.754Z,18.08
2023-04-21T19:41:00.730Z,24.73
2023-04-21T19:43:27.671Z,22.05
2023-04-21T19:45:54.726Z,20.48
2023-04-21T19:48:21.867Z,24.40
2023-04-21T19:50:48.819Z,23.65
2023-04-21T19:53:15.933Z,21.90
2023-04-21T19:55:43.824Z,17.87
2023-04-21T19:58:10.805Z,27.92
2023-04-21T20:00:37.976Z,28.05
2023-04-21T20:03:07.216Z,30.12
2023-04-21T20:05:34.338Z,24.95
2023-04-21T20:08:01.497Z,29.58
2023-04-21T20:10:28.448Z,30.85
2023-04-21T20:12:55.354Z,26.85
2023-04-21T20:15:22.822Z,19.10
2023-04-21T20:17:50.243Z,15.15
2023-04-21T20:20:17.784Z,15.13
2023-04-21T20:22:44.898Z,22.83
2023-04-21T20:25:13.079Z,17.45
2023-04-21T20:27:40.283Z,18.42
2023-04-21T20:30:08.215Z,15.50
2023-04-21T20:32:35.331Z,12.02
2023-04-21T20:35:02.449Z,17.98
2023-04-21T20:37:29.890Z,14.52
2023-04-21T20:39:57.394Z,17.02
2023-04-21T20:42:24.355Z,13.73
2023-04-21T20:44:51.376Z,12.77
2023-04-21T20:47:18.405Z,12.18
2023-04-21T20:49:47.538Z,14.73
2023-04-21T20:52:15.468Z,13.02
2023-04-21T20:54:42.488Z,17.98
2023-04-21T20:57:10.488Z,18.45
2023-04-21T20:59:37.593Z,13.80
2023-04-21T21:02:05.219Z,11.93
2023-04-21T21:04:32.351Z,14.93
2023-04-21T21:06:59.814Z,22.42
2023-04-21T21:09:26.776Z,15.80
2023-04-21T21:11:53.866Z,14.90
2023-04-21T21:14:20.755Z,13.95
2023-04-21T21:16:47.770Z,12.93
2023-04-21T21:19:15.076Z,19.87
2023-04-21T21:21:42.110Z,14.05
2023-04-21T21:24:09.060Z,18.10
2023-04-21T21:26:36.024Z,17.27
2023-04-21T21:29:03.321Z,20.67
2023-04-21T21:31:30.256Z,17.70
2023-04-21T21:33:58.412Z,19.15
2023-04-21T21:36:25.556Z,15.68
2023-04-21T21:38:52.461Z,17.60
2023-04-21T21:41:19.908Z,18.70
2023-04-21T21:43:47.069Z,18.73
2023-04-21T21:46:14.058Z,13.07
2023-04-21T21:48:42.742Z,18.83
2023-04-21T21:51:09.704Z,21.92
2023-04-21T21:53:36.636Z,16.40
2023-04-21T21:56:03.637Z,15.48
2023-04-21T21:58:30.992Z,15.98
2023-04-21T22:00:58.229Z,15.52
2023-04-21T22:03:25.826Z,21.75
2023-04-21T22:05:53.012Z,23.00
2023-04-21T22:08:19.963Z,18.90
2023-04-21T22:10:46.945Z,21.50
2023-04-21T22:13:13.892Z,19.60
2023-04-21T22:15:41.492Z,15.98
2023-04-21T22:18:09.982Z,14.90
2023-04-21T22:20:37.122Z,13.15
2023-04-21T22:23:04.346Z,16.00
2023-04-21T22:25:31.453Z,13.55
2023-04-21T22:27:58.409Z,14.23
2023-04-21T22:30:26.072Z,15.70
2023-04-21T22:32:53.014Z,17.65
2023-04-21T22:35:20.192Z,13.57
2023-04-21T22:37:47.083Z,14.15
2023-04-21T22:40:14.163Z,15.32
2023-04-21T22:42:41.212Z,16.33
2023-04-21T22:45:08.683Z,15.32
2023-04-21T22:47:35.914Z,22.37
2023-04-21T22:50:04.574Z,17.33
2023-04-21T22:52:31.579Z,13.00
2023-04-21T22:54:58.560Z,15.40
2023-04-21T22:57:25.943Z,14.68
2023-04-21T22:59:52.981Z,14.35
2023-04-21T23:02:20.014Z,15.82
2023-04-21T23:04:46.983Z,11.65
2023-04-21T23:07:13.926Z,14.30
2023-04-21T23:09:40.971Z,16.08
2023-04-21T23:12:08.549Z,17.42
2023-04-21T23:14:35.578Z,18.48
2023-04-21T23:17:02.566Z,16.62
2023-04-21T23:19:29.702Z,18.92
2023-04-21T23:21:56.733Z,11.82
2023-04-21T23:24:23.589Z,13.82
2023-04-21T23:26:50.746Z,11.82
2023-04-21T23:29:17.858Z,12.10
2023-04-21T23:31:45.138Z,16.12
2023-04-21T23:34:12.125Z,9.63
2023-04-21T23:36:39.013Z,14.05
2023-04-21T23:39:06.435Z,13.48
2023-04-21T23:41:33.506Z,10.35
2023-04-21T23:44:00.521Z,11.80
2023-04-21T23:46:27.554Z,12.77
2023-04-21T23:48:54.733Z,13.70
2023-04-21T23:51:22.248Z,12.75
2023-04-21T23:53:49.358Z,11.75
2023-04-21T23:56:16.585Z,7.85
2023-04-21T23:58:43.563Z,12.80
